createdAt,value
2023-09-08T00:02:05.624Z,8.93
2023-09-08T00:04:32.290Z,9.18
2023-09-08T00:06:58.899Z,8.95
2023-09-08T00:09:25.555Z,9.23
2023-09-08T00:11:52.094Z,8.77
2023-09-08T00:14:18.878Z,9.23
2023-09-08T00:16:45.537Z,9.13
2023-09-08T00:19:12.988Z,9.18
2023-09-08T00:21:39.613Z,8.90
2023-09-08T00:24:06.457Z,8.88
2023-09-08T00:26:33.651Z,8.75
2023-09-08T00:29:00.238Z,9.48
2023-09-08T00:31:26.793Z,9.13
2023-09-08T00:33:53.434Z,9.35
2023-09-08T00:36:20.171Z,9.25
2023-09-08T00:38:46.728Z,9.45
2023-09-08T00:41:13.284Z,9.60
2023-09-08T00:43:39.823Z,8.95
2023-09-08T00:46:07.908Z,9.48
2023-09-08T00:48:35.623Z,8.80
2023-09-08T00:51:03.255Z,8.57
2023-09-08T00:53:30.221Z,8.95
2023-09-08T00:55:57.534Z,9.00
2023-09-08T00:58:24.117Z,8.98
2023-09-08T01:00:50.704Z,9.30
2023-09-08T01:03:17.439Z,9.63
2023-09-08T01:05:45.559Z,10.07
2023-09-08T01:08:12.166Z,9.05
2023-09-08T01:10:38.783Z,9.82
2023-09-08T01:13:05.312Z,10.00
2023-09-08T01:15:31.917Z,9.88
2023-09-08T01:17:59.708Z,10.63
2023-09-08T01:21:04.524Z,10.57
2023-09-08T01:24:26.052Z,10.27
2023-09-08T01:26:52.684Z,10.05
2023-09-08T01:29:20.409Z,10.68
2023-09-08T01:31:47.897Z,11.45
2023-09-08T01:34:14.720Z,10.52
2023-09-08T01:36:41.316Z,11.10
2023-09-08T01:39:07.892Z,10.48
2023-09-08T01:41:34.517Z,11.27
2023-09-08T01:44:01.989Z,11.02
2023-09-08T01:46:28.545Z,10.35
2023-09-08T01:48:55.206Z,11.52
2023-09-08T01:51:21.816Z,10.52
2023-09-08T01:53:48.336Z,10.57
2023-09-08T01:56:14.871Z,12.55
2023-09-08T01:58:41.409Z,12.77
2023-09-08T02:01:08.168Z,13.05
2023-09-08T02:03:35.556Z,11.73
2023-09-08T02:06:02.130Z,13.43
2023-09-08T02:08:28.658Z,12.93
2023-09-08T02:10:55.201Z,11.60
2023-09-08T02:13:22.960Z,12.98
2023-09-08T02:15:49.777Z,13.43
2023-09-08T02:18:16.444Z,13.77
2023-09-08T02:20:42.989Z,17.13
2023-09-08T02:23:09.666Z,16.42
2023-09-08T02:25:36.228Z,17.73
2023-09-08T02:28:03.049Z,16.90
2023-09-08T02:30:29.738Z,18.55
2023-09-08T02:32:57.284Z,20.25
2023-09-08T02:35:25.073Z,20.27
2023-09-08T02:37:52.820Z,20.00
2023-09-08T02:40:20.392Z,20.50
2023-09-08T02:42:47.445Z,19.73
2023-09-08T02:45:14.198Z,19.58
2023-09-08T02:47:40.848Z,20.10
2023-09-08T02:50:09.190Z,19.67
2023-09-08T02:52:35.762Z,19.70
2023-09-08T02:55:02.457Z,19.92
2023-09-08T02:57:29.013Z,20.85
2023-09-08T02:59:55.614Z,21.65
2023-09-08T03:02:22.529Z,20.83
2023-09-08T03:04:49.233Z,19.40
2023-09-08T03:07:15.924Z,19.65
2023-09-08T03:09:43.809Z,20.40
2023-09-08T03:12:10.390Z,18.73
2023-09-08T03:14:36.978Z,19.55
2023-09-08T03:17:03.729Z,19.77
2023-09-08T03:19:31.701Z,19.58
2023-09-08T03:21:58.244Z,20.98
2023-09-08T03:24:25.986Z,21.23
2023-09-08T03:26:52.558Z,19.80
2023-09-08T03:29:19.161Z,21.63
2023-09-08T03:31:45.841Z,19.42
2023-09-08T03:34:12.617Z,21.08
2023-09-08T03:36:39.425Z,19.48
2023-09-08T03:39:06.164Z,19.23
2023-09-08T03:41:32.651Z,20.55
2023-09-08T03:43:59.943Z,22.33
2023-09-08T03:46:26.614Z,24.25
2023-09-08T03:48:53.572Z,26.63
2023-09-08T03:51:20.382Z,25.77
2023-09-08T03:53:47.031Z,24.90
2023-09-08T03:56:13.604Z,23.60
2023-09-08T03:58:40.558Z,23.92
2023-09-08T04:01:07.152Z,24.05
2023-09-08T04:03:34.153Z,23.77
2023-09-08T04:06:01.077Z,25.15
2023-09-08T04:08:27.790Z,24.77
2023-09-08T04:10:54.408Z,24.60
2023-09-08T04:13:21.548Z,25.40
2023-09-08T04:15:48.204Z,26.77
2023-09-08T04:18:15.215Z,27.90
2023-09-08T04:20:41.824Z,28.15
2023-09-08T04:23:08.414Z,28.25
2023-09-08T04:25:34.918Z,28.95
2023-09-08T04:28:01.498Z,30.35
2023-09-08T04:30:28.267Z,29.25
2023-09-08T04:32:54.927Z,30.60
2023-09-08T04:35:21.445Z,30.67
2023-09-08T04:37:48.011Z,27.88
2023-09-08T04:40:14.535Z,29.55
2023-09-08T04:42:41.267Z,29.08
2023-09-08T04:45:09.041Z,28.65
2023-09-08T04:47:36.957Z,28.80
2023-09-08T04:50:05.553Z,26.45
2023-09-08T04:52:32.250Z,27.60
2023-09-08T04:55:00.208Z,27.92
2023-09-08T04:57:27.256Z,27.08
2023-09-08T04:59:57.772Z,26.33
2023-09-08T05:02:24.773Z,27.58
2023-09-08T05:04:51.733Z,27.13
2023-09-08T05:07:18.359Z,26.83
2023-09-08T05:09:44.848Z,25.95
2023-09-08T05:12:11.722Z,27.45
2023-09-08T05:14:38.531Z,28.38
2023-09-08T05:17:05.245Z,29.02
2023-09-08T05:19:32.241Z,28.90
2023-09-08T05:21:58.838Z,27.90
2023-09-08T05:24:25.874Z,28.80
2023-09-08T05:26:52.503Z,29.10
2023-09-08T05:29:20.388Z,27.88
2023-09-08T05:31:46.978Z,26.83
2023-09-08T05:34:14.428Z,29.15
2023-09-08T05:36:41.497Z,27.90
2023-09-08T05:39:08.729Z,27.25
2023-09-08T05:41:35.338Z,27.48
2023-09-08T05:44:03.339Z,26.65
2023-09-08T05:46:30.218Z,27.90
2023-09-08T05:48:58.124Z,26.48
2023-09-08T05:51:25.356Z,27.92
2023-09-08T05:53:53.807Z,27.65
2023-09-08T05:56:20.928Z,27.98
2023-09-08T05:58:47.682Z,28.55
2023-09-08T06:01:14.387Z,27.60
2023-09-08T06:03:41.062Z,28.23
2023-09-08T06:06:07.803Z,27.60
2023-09-08T06:08:34.657Z,28.88
2023-09-08T06:11:02.098Z,28.25
2023-09-08T06:13:28.881Z,27.45
2023-09-08T06:15:55.540Z,26.63
2023-09-08T06:18:22.085Z,25.67
2023-09-08T06:20:49.392Z,26.13
2023-09-08T06:23:17.067Z,27.15
2023-09-08T06:25:43.607Z,25.98
2023-09-08T06:28:10.462Z,25.35
2023-09-08T06:30:37.797Z,24.35
2023-09-08T06:33:04.587Z,23.92
2023-09-08T06:35:31.261Z,24.15
2023-09-08T06:37:57.824Z,22.38
2023-09-08T06:40:25.712Z,22.50
2023-09-08T06:42:52.423Z,21.88
2023-09-08T06:45:28.807Z,22.25
2023-09-08T06:47:55.513Z,22.45
2023-09-08T06:50:23.064Z,21.33
2023-09-08T06:52:53.040Z,21.27
2023-09-08T06:55:20.000Z,21.13
2023-09-08T06:57:48.952Z,21.73
2023-09-08T07:00:16.107Z,21.00
2023-09-08T07:02:42.863Z,20.08
2023-09-08T07:05:11.131Z,21.42
2023-09-08T07:07:38.500Z,21.63
2023-09-08T07:10:05.607Z,21.05
2023-09-08T07:12:32.336Z,21.75
2023-09-08T07:14:59.253Z,22.27
2023-09-08T07:17:26.384Z,21.73
2023-09-08T07:19:53.749Z,21.35
2023-09-08T07:22:21.466Z,21.77
2023-09-08T07:24:48.156Z,21.95
2023-09-08T07:27:16.925Z,21.98
2023-09-08T07:29:43.626Z,22.52
2023-09-08T07:32:10.478Z,22.58
2023-09-08T07:34:37.100Z,22.08
2023-09-08T07:37:04.060Z,22.60
2023-09-08T07:39:30.663Z,21.52
2023-09-08T07:41:59.088Z,21.23
2023-09-08T07:46:55.644Z,21.75
2023-09-08T07:49:22.298Z,19.90
2023-09-08T07:51:48.845Z,20.88
2023-09-08T07:54:15.657Z,21.13
2023-09-08T07:56:42.234Z,20.58
2023-09-08T07:59:08.927Z,21.15
2023-09-08T08:01:35.562Z,20.83
2023-09-08T08:04:02.234Z,19.30
2023-09-08T08:06:28.779Z,21.88
2023-09-08T08:08:55.380Z,21.58
2023-09-08T08:11:21.975Z,22.02
2023-09-08T08:13:48.671Z,22.40
2023-09-08T08:16:15.228Z,20.73
2023-09-08T08:18:42.010Z,20.95
2023-09-08T08:21:08.734Z,20.35
2023-09-08T08:23:35.443Z,21.02
2023-09-08T08:26:02.999Z,20.35
2023-09-08T08:28:29.532Z,20.00
2023-09-08T08:30:56.107Z,18.98
2023-09-08T08:33:22.877Z,18.50
2023-09-08T08:35:50.615Z,19.80
2023-09-08T08:38:17.187Z,19.27
2023-09-08T08:40:43.732Z,19.63
2023-09-08T08:43:10.614Z,19.25
2023-09-08T08:45:39.106Z,18.13
2023-09-08T08:48:08.432Z,18.33
2023-09-08T08:50:36.924Z,20.17
2023-09-08T08:53:03.658Z,19.13
2023-09-08T08:55:31.763Z,18.38
2023-09-08T08:58:05.082Z,18.63
2023-09-08T09:00:34.707Z,18.45
2023-09-08T09:03:12.099Z,20.25
2023-09-08T09:05:44.639Z,19.63
2023-09-08T09:08:14.304Z,18.17
2023-09-08T09:10:40.811Z,20.63
2023-09-08T09:13:07.341Z,19.85
2023-09-08T09:15:33.993Z,19.52
2023-09-08T09:18:07.783Z,19.45
2023-09-08T09:20:35.322Z,18.35
2023-09-08T09:23:02.091Z,20.42
2023-09-08T09:25:31.298Z,20.95
2023-09-08T09:28:00.245Z,20.27
2023-09-08T09:30:27.720Z,19.55
2023-09-08T09:33:05.307Z,19.23
2023-09-08T09:35:49.267Z,18.92
2023-09-08T09:38:15.806Z,18.05
2023-09-08T09:40:42.465Z,19.02
2023-09-08T09:43:09.570Z,17.40
2023-09-08T09:45:38.002Z,18.73
2023-09-08T09:48:05.729Z,17.90
2023-09-08T09:50:34.169Z,18.63
2023-09-08T09:53:03.127Z,19.50
2023-09-08T09:55:29.876Z,19.73
2023-09-08T09:57:58.237Z,18.52
2023-09-08T10:00:26.820Z,20.25
2023-09-08T10:02:54.982Z,20.35
2023-09-08T10:05:22.069Z,19.92
2023-09-08T10:07:48.865Z,19.15
2023-09-08T10:10:16.749Z,20.67
2023-09-08T10:12:50.190Z,21.25
2023-09-08T10:15:21.600Z,19.88
2023-09-08T10:17:53.762Z,19.23
2023-09-08T10:20:21.334Z,18.15
2023-09-08T10:22:53.882Z,19.17
2023-09-08T10:25:22.306Z,19.17
2023-09-08T10:27:49.581Z,17.25
2023-09-08T10:30:17.535Z,18.75
2023-09-08T10:32:44.507Z,18.17
2023-09-08T10:35:11.631Z,18.63
2023-09-08T10:37:38.145Z,20.13
2023-09-08T10:40:22.385Z,18.67
2023-09-08T10:42:49.698Z,18.05
2023-09-08T10:45:18.976Z,17.45
2023-09-08T10:47:48.592Z,17.35
2023-09-08T10:50:19.425Z,17.93
2023-09-08T10:53:04.613Z,18.58
2023-09-08T10:55:40.321Z,19.40
2023-09-08T10:58:06.807Z,17.15
2023-09-08T11:00:52.504Z,18.42
2023-09-08T11:03:28.480Z,20.55
2023-09-08T11:05:55.256Z,18.40
2023-09-08T11:08:22.452Z,18.27
2023-09-08T11:10:49.941Z,18.58
2023-09-08T11:13:16.454Z,18.77
2023-09-08T11:15:43.176Z,18.20
2023-09-08T11:18:10.144Z,18.45
2023-09-08T11:20:36.796Z,17.40
2023-09-08T11:23:04.487Z,17.45
2023-09-08T11:25:31.085Z,16.50
2023-09-08T11:27:58.219Z,16.70
2023-09-08T11:30:26.206Z,17.00
2023-09-08T11:32:52.851Z,17.20
2023-09-08T11:35:19.741Z,17.63
2023-09-08T11:37:46.226Z,15.25
2023-09-08T11:40:13.684Z,14.85
2023-09-08T11:42:41.689Z,13.18
2023-09-08T11:45:08.750Z,15.25
2023-09-08T11:47:35.283Z,14.15
2023-09-08T11:50:03.488Z,14.32
2023-09-08T11:52:29.998Z,14.18
2023-09-08T11:55:06.312Z,13.82
2023-09-08T11:57:34.562Z,15.25
2023-09-08T12:00:02.574Z,13.43
2023-09-08T12:02:35.172Z,12.73
2023-09-08T12:05:02.549Z,12.35
2023-09-08T12:07:29.460Z,11.40
2023-09-08T12:09:56.102Z,10.95
2023-09-08T12:12:22.695Z,12.10
2023-09-08T12:14:49.158Z,11.80
2023-09-08T12:17:15.743Z,9.30
2023-09-08T12:19:42.269Z,9.25
2023-09-08T12:22:09.020Z,8.82
2023-09-08T12:24:49.712Z,7.82
2023-09-08T12:27:17.577Z,9.27
2023-09-08T12:30:04.619Z,9.48
2023-09-08T12:32:32.855Z,9.15
2023-09-08T12:35:00.547Z,9.07
2023-09-08T12:37:27.341Z,9.73
2023-09-08T12:39:54.282Z,7.90
2023-09-08T12:42:21.056Z,8.73
2023-09-08T12:44:48.733Z,7.57
2023-09-08T12:47:15.389Z,6.93
2023-09-08T12:49:41.923Z,5.95
2023-09-08T12:52:08.640Z,6.50
2023-09-08T12:54:35.149Z,6.72
2023-09-08T12:57:03.775Z,6.30
2023-09-08T12:59:31.872Z,5.93
2023-09-08T13:01:58.359Z,5.15
2023-09-08T13:04:24.944Z,6.40
2023-09-08T13:06:52.013Z,6.20
2023-09-08T13:09:18.668Z,6.15
2023-09-08T13:11:45.191Z,7.15
2023-09-08T13:14:11.750Z,7.43
2023-09-08T13:16:38.322Z,6.50
2023-09-08T13:19:05.217Z,7.35
2023-09-08T13:21:31.761Z,6.60
2023-09-08T13:23:58.283Z,5.47
2023-09-08T13:26:24.854Z,5.90
2023-09-08T13:28:51.434Z,6.25
2023-09-08T13:31:18.072Z,6.95
2023-09-08T13:33:45.008Z,6.35
2023-09-08T13:36:11.507Z,6.30
2023-09-08T13:38:38.692Z,6.40
2023-09-08T13:41:06.272Z,6.20
2023-09-08T13:43:32.897Z,7.50
2023-09-08T13:45:59.352Z,10.40
2023-09-08T13:48:26.311Z,11.20
2023-09-08T13:50:54.306Z,7.80
2023-09-08T13:53:21.906Z,15.38
2023-09-08T13:55:51.282Z,12.50
2023-09-08T13:58:20.592Z,11.70
2023-09-08T14:00:52.254Z,11.20
2023-09-08T14:05:52.840Z,10.25
2023-09-08T14:08:28.850Z,11.00
2023-09-08T14:13:37.093Z,7.68
2023-09-08T14:16:04.176Z,7.38
2023-09-08T14:18:31.008Z,5.07
2023-09-08T14:20:57.623Z,6.50
2023-09-08T14:23:24.156Z,6.90
2023-09-08T14:25:50.764Z,7.07
2023-09-08T14:28:17.385Z,6.60
2023-09-08T14:30:43.981Z,6.90
2023-09-08T14:33:10.642Z,5.65
2023-09-08T14:35:42.818Z,7.05
2023-09-08T14:38:09.487Z,6.25
2023-09-08T14:40:36.141Z,5.93
2023-09-08T14:43:02.737Z,5.80
2023-09-08T14:45:29.261Z,6.40
2023-09-08T14:47:56.379Z,7.15
2023-09-08T14:50:24.220Z,5.15
2023-09-08T14:52:50.823Z,5.60
2023-09-08T14:55:17.379Z,5.45
2023-09-08T14:57:43.959Z,5.05
2023-09-08T15:00:10.969Z,5.60
2023-09-08T15:02:37.582Z,5.57
2023-09-08T15:05:04.346Z,5.93
2023-09-08T15:07:30.855Z,5.32
2023-09-08T15:09:57.344Z,5.38
2023-09-08T15:12:23.924Z,5.00
2023-09-08T15:14:50.444Z,4.25
2023-09-08T15:17:16.983Z,4.15
2023-09-08T15:19:43.684Z,3.78
2023-09-08T15:22:10.207Z,4.03
2023-09-08T15:24:37.496Z,3.90
2023-09-08T15:27:04.419Z,3.53
2023-09-08T15:29:31.168Z,3.92
2023-09-08T15:31:57.893Z,4.20
2023-09-08T15:34:27.119Z,4.18
2023-09-08T15:36:54.115Z,4.33
2023-09-08T15:39:20.718Z,3.83
2023-09-08T15:41:47.424Z,3.72
2023-09-08T15:44:14.010Z,4.03
2023-09-08T15:46:40.826Z,3.70
2023-09-08T15:49:07.451Z,3.65
2023-09-08T15:51:34.121Z,4.72
2023-09-08T15:54:00.642Z,4.43
2023-09-08T15:56:27.178Z,5.05
2023-09-08T15:58:53.659Z,3.75
2023-09-08T16:01:20.417Z,3.63
2023-09-08T16:03:47.125Z,3.90
2023-09-08T16:06:14.037Z,4.15
2023-09-08T16:08:40.666Z,3.80
2023-09-08T16:11:07.773Z,4.10
2023-09-08T16:13:34.451Z,3.70
2023-09-08T16:16:01.373Z,4.00
2023-09-08T16:18:28.022Z,3.72
2023-09-08T16:20:54.610Z,4.10
2023-09-08T16:23:21.170Z,3.83
2023-09-08T16:25:47.973Z,3.90
2023-09-08T16:28:14.584Z,4.05
2023-09-08T16:30:41.172Z,3.80
2023-09-08T16:33:08.033Z,3.70
2023-09-08T16:35:35.394Z,4.50
2023-09-08T16:38:01.890Z,5.07
2023-09-08T16:40:28.403Z,5.63
2023-09-08T16:42:54.907Z,5.28
2023-09-08T16:45:21.511Z,7.38
2023-09-08T16:47:48.073Z,5.65
2023-09-08T16:50:14.678Z,5.50
2023-09-08T16:52:41.238Z,5.60
2023-09-08T16:55:08.007Z,5.75
2023-09-08T16:57:34.498Z,5.15
2023-09-08T17:00:01.195Z,5.53
2023-09-08T17:02:28.478Z,4.82
2023-09-08T17:04:55.140Z,5.25
2023-09-08T17:07:21.751Z,5.20
2023-09-08T17:09:48.364Z,4.93
2023-09-08T17:12:14.931Z,4.72
2023-09-08T17:14:41.442Z,5.10
2023-09-08T17:17:07.957Z,5.38
2023-09-08T17:19:34.436Z,5.80
2023-09-08T17:22:01.093Z,5.30
2023-09-08T17:24:27.751Z,5.38
2023-09-08T17:26:57.948Z,5.75
2023-09-08T17:29:24.569Z,6.22
2023-09-08T17:31:51.068Z,5.30
2023-09-08T17:34:21.790Z,4.93
2023-09-08T17:36:52.827Z,4.85
2023-09-08T17:39:19.340Z,6.70
2023-09-08T17:41:45.827Z,6.70
2023-09-08T17:44:12.387Z,6.75
2023-09-08T17:46:39.439Z,6.20
2023-09-08T17:49:06.309Z,6.43
2023-09-08T17:51:32.812Z,7.22
2023-09-08T17:53:59.342Z,6.13
2023-09-08T17:56:25.904Z,6.70
2023-09-08T17:58:52.468Z,7.10
2023-09-08T18:01:19.081Z,6.50
2023-09-08T18:03:48.846Z,7.38
2023-09-08T18:06:15.920Z,13.70
2023-09-08T18:08:42.444Z,10.75
2023-09-08T18:11:09.001Z,10.63
2023-09-08T18:13:35.755Z,9.75
2023-09-08T18:16:04.585Z,9.70
2023-09-08T18:18:31.938Z,7.97
2023-09-08T18:20:58.498Z,8.40
2023-09-08T18:23:25.019Z,7.25
2023-09-08T18:25:53.396Z,7.40
2023-09-08T18:28:20.086Z,6.80
2023-09-08T18:30:46.626Z,6.68
2023-09-08T18:33:13.179Z,6.47
2023-09-08T18:35:39.760Z,6.82
2023-09-08T18:38:06.560Z,6.70
2023-09-08T18:40:33.531Z,6.75
2023-09-08T18:43:00.516Z,6.88
2023-09-08T18:45:27.118Z,6.55
2023-09-08T18:47:53.679Z,6.95
2023-09-08T18:50:20.230Z,7.07
2023-09-08T18:52:46.756Z,6.65
2023-09-08T18:55:13.235Z,7.05
2023-09-08T18:57:39.734Z,6.78
2023-09-08T19:00:07.006Z,7.65
2023-09-08T19:02:33.861Z,7.45
2023-09-08T19:05:00.610Z,7.50
2023-09-08T19:07:28.381Z,7.90
2023-09-08T19:09:54.900Z,7.82
2023-09-08T19:12:21.485Z,8.10
2023-09-08T19:14:53.302Z,7.85
2023-09-08T19:17:19.842Z,7.90
2023-09-08T19:19:46.415Z,8.68
2023-09-08T19:22:13.267Z,8.27
2023-09-08T19:24:42.725Z,9.30
2023-09-08T19:27:09.258Z,9.18
2023-09-08T19:29:35.745Z,9.50
2023-09-08T19:32:02.459Z,8.50
2023-09-08T19:34:29.079Z,9.48
2023-09-08T19:36:55.585Z,9.35
2023-09-08T19:39:22.498Z,8.93
2023-09-08T19:41:49.125Z,7.97
2023-09-08T19:44:15.612Z,7.63
2023-09-08T19:46:42.246Z,8.38
2023-09-08T19:49:08.783Z,8.40
2023-09-08T19:51:35.390Z,8.70
2023-09-08T19:54:02.092Z,7.63
2023-09-08T19:56:29.545Z,8.60
2023-09-08T19:58:56.001Z,7.90
2023-09-08T20:01:22.813Z,8.55
2023-09-08T20:03:49.344Z,8.63
2023-09-08T20:06:16.584Z,7.82
2023-09-08T20:08:43.192Z,8.38
2023-09-08T20:11:10.109Z,7.40
2023-09-08T20:13:36.984Z,8.55
2023-09-08T20:16:06.106Z,8.13
2023-09-08T20:18:33.238Z,8.77
2023-09-08T20:21:01.074Z,7.95
2023-09-08T20:23:27.606Z,7.38
2023-09-08T20:25:54.146Z,7.57
2023-09-08T20:28:20.689Z,8.30
2023-09-08T20:31:04.972Z,8.05
2023-09-08T20:33:38.341Z,7.80
2023-09-08T20:36:05.824Z,7.93
2023-09-08T20:38:32.447Z,8.38
2023-09-08T20:40:59.141Z,9.38
2023-09-08T20:43:25.703Z,10.20
2023-09-08T20:45:55.804Z,10.10
2023-09-08T20:48:23.167Z,9.38
2023-09-08T20:50:59.210Z,10.55
2023-09-08T20:53:25.718Z,9.43
2023-09-08T20:55:52.245Z,10.40
2023-09-08T20:58:18.854Z,9.65
2023-09-08T21:00:45.435Z,10.70
2023-09-08T21:03:12.371Z,9.88
2023-09-08T21:05:38.935Z,11.38
2023-09-08T21:08:05.966Z,10.65
2023-09-08T21:10:33.201Z,10.18
2023-09-08T21:12:59.775Z,10.43
2023-09-08T21:15:26.370Z,10.00
2023-09-08T21:17:53.068Z,10.82
2023-09-08T21:20:19.712Z,9.70
2023-09-08T21:22:46.292Z,9.15
2023-09-08T21:25:12.810Z,10.52
2023-09-08T21:27:39.292Z,10.48
2023-09-08T21:30:06.661Z,9.52
2023-09-08T21:32:33.304Z,9.80
2023-09-08T21:34:59.897Z,9.18
2023-09-08T21:37:26.490Z,10.65
2023-09-08T21:39:52.994Z,9.65
2023-09-08T21:42:19.601Z,9.75
2023-09-08T21:44:46.384Z,10.38
2023-09-08T21:47:12.951Z,10.23
2023-09-08T21:49:39.523Z,10.35
2023-09-08T21:52:06.381Z,10.18
2023-09-08T21:54:32.920Z,10.30
2023-09-08T21:56:59.458Z,9.73
2023-09-08T21:59:26.208Z,10.18
2023-09-08T22:01:52.770Z,10.32
2023-09-08T22:04:19.445Z,10.45
2023-09-08T22:06:46.244Z,10.30
2023-09-08T22:09:12.737Z,10.50
2023-09-08T22:11:39.267Z,10.57
2023-09-08T22:14:05.752Z,10.82
2023-09-08T22:16:32.358Z,10.65
2023-09-08T22:18:58.887Z,9.68
2023-09-08T22:21:25.458Z,10.60
2023-09-08T22:23:52.191Z,10.30
2023-09-08T22:26:20.063Z,10.00
2023-09-08T22:28:50.442Z,10.35
2023-09-08T22:31:17.226Z,9.70
2023-09-08T22:33:44.200Z,9.65
2023-09-08T22:36:11.118Z,9.27
2023-09-08T22:38:37.750Z,9.38
2023-09-08T22:41:04.305Z,9.40
2023-09-08T22:43:30.788Z,10.20
2023-09-08T22:45:57.396Z,9.57
2023-09-08T22:48:23.984Z,8.85
2023-09-08T22:50:50.985Z,9.63
2023-09-08T22:53:18.446Z,8.75
2023-09-08T22:55:45.382Z,9.18
2023-09-08T22:58:16.130Z,8.88
2023-09-08T23:00:42.811Z,9.40
2023-09-08T23:03:09.471Z,9.45
2023-09-08T23:05:36.151Z,9.27
2023-09-08T23:08:02.745Z,7.90
2023-09-08T23:10:29.321Z,7.97
2023-09-08T23:12:56.084Z,8.98
2023-09-08T23:15:23.099Z,7.82
2023-09-08T23:17:49.741Z,7.75
2023-09-08T23:20:16.512Z,7.60
2023-09-08T23:22:44.377Z,7.95
2023-09-08T23:25:11.098Z,7.40
2023-09-08T23:27:37.833Z,7.15
2023-09-08T23:30:05.125Z,8.25
2023-09-08T23:32:31.676Z,8.10
2023-09-08T23:34:59.866Z,8.07
2023-09-08T23:37:26.433Z,7.43
2023-09-08T23:39:53.079Z,8.70
2023-09-08T23:42:19.626Z,8.07
2023-09-08T23:44:46.186Z,8.15
2023-09-08T23:47:12.748Z,8.35
2023-09-08T23:49:39.304Z,8.10
2023-09-08T23:52:05.847Z,8.57
2023-09-08T23:54:32.381Z,7.90
2023-09-08T23:56:59.097Z,7.85
2023-09-08T23:59:25.876Z,8.15
